Christos Xli — SVA7812 — position and weather

sailwx.info

Track history (hours):
 
Tides and Currents Weather Stations Pressure Air Temp Water Temp Dewpoint Dewpoint Depression Visibility Wind Speed Wind Dir Waves Ship Positions

Christos Xli

Last reported at 2018-Jun-17 20:28 UTC. Time now 2018-Jun-17 22:18 UTC.
Position N 37°57' E 023°33'.

Length 34 m; draft 5.2 m.

Type: Tug. MMSI: 241567000.

Date/timePositionNaut miles runAvg speedWind from/ knotsBaromVisibWave heightAir tempDewpointWater temp
2018-Jun-17 20:28N 37°57' E 023°33'0 0.0
2018-Jun-17 20:00N 37°57' E 023°33'0 0.0
2018-Jun-17 19:30N 37°57' E 023°33'0 0.0
2018-Jun-17 19:00N 37°57' E 023°33'0 0.0
2018-Jun-17 18:30N 37°57' E 023°33'0 0.0
2018-Jun-17 18:00N 37°57' E 023°33'0 0.0
2018-Jun-17 17:30N 37°57' E 023°33'0 0.0
2018-Jun-17 17:00N 37°57' E 023°33'0 0.0
2018-Jun-17 16:30N 37°57' E 023°33'0 0.0
2018-Jun-17 16:00N 37°57' E 023°33'0 0.0
2018-Jun-17 15:30N 37°57' E 023°33'0 0.0
2018-Jun-17 15:00N 37°57' E 023°33'0 0.0
2018-Jun-17 14:30N 37°57' E 023°33'0 0.0
2018-Jun-17 14:00N 37°57' E 023°33'0 0.0
2018-Jun-17 13:30N 37°57' E 023°33'0 0.0
2018-Jun-17 13:00N 37°57' E 023°33'0 0.5
2018-Jun-17 12:30N 37°57' E 023°33'1 2.5
2018-Jun-17 12:00N 37°57' E 023°35'0 0.9
2018-Jun-17 11:30N 37°57' E 023°35'2 3.4
2018-Jun-17 11:00N 37°57' E 023°33'0 0.0
2018-Jun-17 10:30N 37°57' E 023°33'0 0.0
2018-Jun-17 10:00N 37°57' E 023°33'0 0.0
2018-Jun-17 09:30N 37°57' E 023°33'0 0.0
2018-Jun-17 09:00N 37°57' E 023°33'0 0.0
2018-Jun-17 08:30N 37°57' E 023°33'0 0.0
2018-Jun-17 08:00N 37°57' E 023°33'0 0.0
2018-Jun-17 07:30N 37°57' E 023°33'0 0.0
2018-Jun-17 07:00N 37°57' E 023°33'0 0.0
2018-Jun-17 06:30N 37°57' E 023°33'0 0.0
2018-Jun-17 06:00N 37°57' E 023°33'0 0.0
2018-Jun-17 05:30N 37°57' E 023°33'0 0.0
2018-Jun-17 05:00N 37°57' E 023°33'0 0.0
2018-Jun-17 04:30N 37°57' E 023°33'0 0.0
2018-Jun-17 04:00N 37°57' E 023°33'0 0.0
2018-Jun-17 03:30N 37°57' E 023°33'0 0.0
2018-Jun-17 03:00N 37°57' E 023°33'0 0.0
2018-Jun-17 02:30N 37°57' E 023°33'0 0.0
2018-Jun-17 02:00N 37°57' E 023°33'0 0.0
2018-Jun-17 01:30N 37°57' E 023°33'0 0.0
2018-Jun-17 01:00N 37°57' E 023°33'0 0.0
2018-Jun-17 00:30N 37°57' E 023°33'0 0.0
2018-Jun-17 00:00N 37°57' E 023°33'0 0.0
2018-Jun-16 23:30N 37°57' E 023°33'1 2.7
2018-Jun-16 23:00N 37°57' E 023°35'0 0.6
2018-Jun-16 22:30N 37°57' E 023°35'0 0.0
2018-Jun-16 22:00N 37°57' E 023°35'0 0.4
2018-Jun-16 21:30N 37°57' E 023°35'1 1.6
2018-Jun-16 21:00N 37°56' E 023°35'1 1.8
2018-Jun-16 20:30N 37°57' E 023°35'1 2.3
2018-Jun-16 20:00N 37°56' E 023°35'1 1.9
2018-Jun-16 19:30N 37°57' E 023°35'2 3.5
2018-Jun-16 19:00N 37°57' E 023°33'0 0.0
2018-Jun-16 18:30N 37°57' E 023°33'0 0.0
2018-Jun-16 18:00N 37°57' E 023°33'0 0.0
2018-Jun-16 17:30N 37°57' E 023°33'0 0.0
2018-Jun-16 17:00N 37°57' E 023°33'0 0.0
2018-Jun-16 16:30N 37°57' E 023°33'0 0.0
2018-Jun-16 16:00N 37°57' E 023°33'0 0.0
2018-Jun-16 15:30N 37°57' E 023°33'0 0.0
2018-Jun-16 15:00N 37°57' E 023°33'0 0.0
2018-Jun-16 14:30N 37°57' E 023°33'0 0.0
2018-Jun-16 14:00N 37°57' E 023°33'0 0.0
2018-Jun-16 13:30N 37°57' E 023°33'0 0.0
2018-Jun-16 13:00N 37°57' E 023°33'0 0.0
2018-Jun-16 12:30N 37°57' E 023°33'0 0.0
2018-Jun-16 12:00N 37°57' E 023°33'3 6.2
2018-Jun-16 11:30N 38°00' E 023°33'2 3.9
2018-Jun-16 11:00N 38°01' E 023°36'1 1.4
2018-Jun-16 10:30N 38°01' E 023°35'1 2.4
2018-Jun-16 10:00N 38°00' E 023°33'0 0.5
2018-Jun-16 09:30N 38°00' E 023°33'3 5.9
2018-Jun-16 09:00N 37°57' E 023°35'0 0.0
2018-Jun-16 08:30N 37°57' E 023°35'0 0.0
2018-Jun-16 08:00N 37°57' E 023°35'0 0.0
2018-Jun-16 07:30N 37°57' E 023°35'0 0.0
2018-Jun-16 07:00N 37°57' E 023°35'0 0.1
2018-Jun-16 06:30N 37°57' E 023°35'0 0.0
2018-Jun-16 06:00N 37°57' E 023°35'0 0.0
2018-Jun-16 05:30N 37°57' E 023°35'0 0.0
2018-Jun-16 05:00N 37°57' E 023°35'0 0.0
2018-Jun-16 04:30N 37°57' E 023°35'0 0.0
2018-Jun-16 04:00N 37°57' E 023°35'0 0.0
2018-Jun-16 03:30N 37°57' E 023°35'0 0.0
2018-Jun-16 03:00N 37°57' E 023°35'0 0.0
2018-Jun-16 02:30N 37°57' E 023°35'0 0.0
2018-Jun-16 02:00N 37°57' E 023°35'0 0.0
2018-Jun-16 01:30N 37°57' E 023°35'0 0.0
2018-Jun-16 01:00N 37°57' E 023°35'0 0.0
2018-Jun-16 00:30N 37°57' E 023°35'0 0.0
2018-Jun-15 23:59N 37°57' E 023°35'0 0.0
2018-Jun-15 23:31N 37°57' E 023°35'1 1.5
2018-Jun-15 23:01N 37°57' E 023°36'0 0.2
2018-Jun-15 22:30N 37°57' E 023°36'0 0.0
2018-Jun-15 22:00N 37°57' E 023°36'0 0.2
2018-Jun-15 21:30N 37°57' E 023°36'1 1.6
2018-Jun-15 21:01N 37°56' E 023°36'1 1.4
2018-Jun-15 20:30N 37°57' E 023°36'0 0.4
2018-Jun-15 20:00N 37°57' E 023°36'1 2.0
2018-Jun-15 19:30N 37°57' E 023°35'0 0.2
2018-Jun-15 19:00N 37°57' E 023°35'2 3.4
2018-Jun-15 18:30N 37°58' E 023°33'2 3.4
2018-Jun-15 18:00N 37°57' E 023°35'0 0.0
2018-Jun-15 17:30N 37°57' E 023°35'0 0.0
2018-Jun-15 17:00N 37°57' E 023°35'0 0.0
2018-Jun-15 16:30N 37°57' E 023°35'0 0.0
2018-Jun-15 16:00N 37°57' E 023°35'1 2.6
2018-Jun-15 15:30N 37°57' E 023°33'0 0.0
2018-Jun-15 15:00N 37°57' E 023°33'1 2.9
2018-Jun-15 14:30N 37°57' E 023°35'0 0.5
2018-Jun-15 14:00N 37°57' E 023°35'1 2.3
2018-Jun-15 13:30N 37°57' E 023°34'4 7.2
2018-Jun-15 13:00N 38°01' E 023°34'1 2.7
2018-Jun-15 12:30N 38°02' E 023°36'0 0.8
2018-Jun-15 12:00N 38°02' E 023°35'0 0.3
2018-Jun-15 11:30N 38°02' E 023°35'0 0.5
2018-Jun-15 11:00N 38°02' E 023°35'0 0.2
2018-Jun-15 10:30N 38°02' E 023°35'0 0.9
2018-Jun-15 10:00N 38°01' E 023°35'0 0.3
2018-Jun-15 09:30N 38°02' E 023°35'0 0.3
2018-Jun-15 09:00N 38°02' E 023°35'1 2.7
2018-Jun-15 08:30N 38°01' E 023°34'0 0.6
2018-Jun-15 08:00N 38°01' E 023°34'0 0.4
2018-Jun-15 07:30N 38°01' E 023°34'0 0.4
2018-Jun-15 07:00N 38°01' E 023°34'4 7.2
2018-Jun-15 06:30N 37°57' E 023°33'0 0.7
2018-Jun-15 06:00N 37°57' E 023°33'0 0.0
2018-Jun-15 05:30N 37°57' E 023°33'0 0.0
2018-Jun-15 05:00N 37°57' E 023°33'0 0.0
2018-Jun-15 04:30N 37°57' E 023°33'2 3.2
2018-Jun-15 04:00N 37°57' E 023°35'0 0.2
2018-Jun-15 03:30N 37°57' E 023°35'2 3.0
2018-Jun-15 03:00N 37°57' E 023°33'0 0.0
2018-Jun-14 11:28N 37°57' E 023°33'0 0.5
2018-Jun-14 11:00N 37°57' E 023°33'0 0.0
2018-Jun-14 10:30N 37°57' E 023°33'0 0.0
2018-Jun-14 10:00N 37°57' E 023°33'0 0.0
2018-Jun-14 09:31N 37°57' E 023°33'0 0.0
2018-Jun-14 09:00N 37°57' E 023°33'0 0.0
2018-Jun-14 08:30N 37°57' E 023°33'0 0.0
2018-Jun-14 08:00N 37°57' E 023°33'0 0.0
2018-Jun-14 07:30N 37°57' E 023°33'0 0.0
2018-Jun-14 07:00N 37°57' E 023°33'1 1.3
2018-Jun-14 06:26N 37°58' E 023°34'2 3.4
2018-Jun-14 05:59N 37°57' E 023°36'0 0.4
2018-Jun-14 05:30N 37°57' E 023°36'1 1.9
2018-Jun-14 05:00N 37°56' E 023°36'1 2.2
2018-Jun-14 04:31N 37°57' E 023°35'2 3.4
2018-Jun-14 04:00N 37°57' E 023°33'0 0.0
2018-Jun-14 03:30N 37°57' E 023°33'0 0.0
2018-Jun-14 03:00N 37°57' E 023°33'0 0.0
2018-Jun-14 02:30N 37°57' E 023°33'0 0.0
2018-Jun-14 02:00N 37°57' E 023°33'0 0.0
2018-Jun-14 01:30N 37°57' E 023°33'0 0.0
2018-Jun-13 11:52N 37°57' E 023°33'0 0.0
2018-Jun-13 11:30N 37°57' E 023°33'0 0.0
2018-Jun-13 11:00N 37°57' E 023°33'0 0.0
2018-Jun-13 10:30N 37°57' E 023°33'0 0.0
2018-Jun-13 10:00N 37°57' E 023°33'0 0.0
2018-Jun-13 09:30N 37°57' E 023°33'0 0.0
2018-Jun-13 09:00N 37°57' E 023°33'0 0.0
2018-Jun-13 08:31N 37°57' E 023°33'0 0.0
2018-Jun-13 08:00N 37°57' E 023°33'0 0.0
2018-Jun-13 07:30N 37°57' E 023°33'0 0.0
2018-Jun-13 07:00N 37°57' E 023°33'0 0.0
2018-Jun-13 06:31N 37°57' E 023°33'0 0.0
2018-Jun-13 06:00N 37°57' E 023°33'0 0.0
2018-Jun-13 05:31N 37°57' E 023°33'0 0.0
2018-Jun-13 05:00N 37°57' E 023°33'0 0.0
2018-Jun-13 04:30N 37°57' E 023°33'0 0.0
2018-Jun-13 04:00N 37°57' E 023°33'0 0.0
2018-Jun-12 05:13N 37°57' E 023°33'0 0.0
2018-Jun-12 05:01N 37°57' E 023°33'0 0.0
2018-Jun-12 04:30N 37°57' E 023°33'0 0.0
2018-Jun-12 04:01N 37°57' E 023°33'0 0.0
2018-Jun-12 03:31N 37°57' E 023°33'0 0.0
2018-Jun-12 03:01N 37°57' E 023°33'0 0.0
2018-Jun-12 02:31N 37°57' E 023°33'0 0.0
2018-Jun-12 02:01N 37°57' E 023°33'0 0.0
2018-Jun-12 01:31N 37°57' E 023°33'0 0.0
2018-Jun-12 01:01N 37°57' E 023°33'0 0.0
2018-Jun-12 00:31N 37°57' E 023°33'0 0.0
2018-Jun-12 00:00N 37°57' E 023°33'0 0.0
2018-Jun-11 23:31N 37°57' E 023°33'0 0.0
2018-Jun-11 23:01N 37°57' E 023°33'0 0.0
2018-Jun-11 22:31N 37°57' E 023°33'0 0.0
2018-Jun-11 22:01N 37°57' E 023°33'0 0.0
2018-Jun-11 21:30N 37°57' E 023°33'1 1.3
2018-Jun-11 21:01N 37°57' E 023°34'2 3.3
2018-Jun-11 20:30N 37°57' E 023°36'0 0.0
2018-Jun-11 20:01N 37°57' E 023°36'1 2.1
2018-Jun-11 19:20N 37°56' E 023°38'1 1.6
2018-Jun-11 19:00N 37°56' E 023°38'1 1.4
2018-Jun-11 18:30N 37°56' E 023°37'3 6.1
2018-Jun-11 18:00N 37°58' E 023°34'0 0.0
2018-Jun-11 17:30N 37°58' E 023°34'0 0.0
2018-Jun-11 17:00N 37°58' E 023°34'0 0.0
2018-Jun-11 16:30N 37°58' E 023°34'0 0.3
2018-Jun-11 16:00N 37°58' E 023°34'1 3.0
2018-Jun-11 15:30N 37°58' E 023°32'0 0.9
2018-Jun-11 15:00N 37°59' E 023°32'2 3.4
2018-Jun-11 14:30N 37°60' E 023°34'0 0.6
2018-Jun-11 14:00N 37°60' E 023°33'1 1.1
2018-Jun-11 13:30N 37°59' E 023°33'3 5.2
2018-Jun-11 13:00N 37°57' E 023°35'0 0.0
2018-Jun-11 12:30N 37°57' E 023°35'0 0.0
2018-Jun-11 12:00N 37°57' E 023°35'0 0.0
2018-Jun-11 11:30N 37°57' E 023°35'2 3.5
2018-Jun-11 11:00N 37°57' E 023°33'0 0.0
2018-Jun-10 12:27N 37°57' E 023°33'2 5.1
2018-Jun-10 12:00N 37°57' E 023°36'0 1.0
2018-Jun-10 11:30N 37°57' E 023°35'0 0.6
2018-Jun-10 11:00N 37°57' E 023°35'0 0.4
2018-Jun-10 10:30N 37°57' E 023°35'2 3.9
2018-Jun-10 10:00N 37°57' E 023°33'0 0.0
2018-Jun-10 09:30N 37°57' E 023°33'0 0.0
2018-Jun-10 09:00N 37°57' E 023°33'0 0.0
2018-Jun-10 08:30N 37°57' E 023°33'0 0.0
2018-Jun-10 08:00N 37°57' E 023°33'0 0.0
2018-Jun-10 07:30N 37°57' E 023°33'0 0.2
2018-Jun-10 07:00N 37°57' E 023°33'3 6.6
2018-Jun-10 06:30N 37°56' E 023°37'0 0.6
2018-Jun-10 06:00N 37°56' E 023°37'0 0.1
2018-Jun-10 05:30N 37°56' E 023°37'0 0.0
2018-Jun-10 05:00N 37°56' E 023°37'3 5.9
2018-Jun-10 04:30N 37°57' E 023°34'1 1.4
2018-Jun-10 04:00N 37°57' E 023°33'0 0.0
2018-Jun-09 16:09N 37°57' E 023°33'1 3.5
2018-Jun-09 16:00N 37°57' E 023°34'2 3.5
2018-Jun-09 15:30N 37°57' E 023°36'0 0.3
2018-Jun-09 14:31N 37°57' E 023°36'0 0.1
2018-Jun-09 14:00N 37°57' E 023°36'0 0.7
2018-Jun-09 13:30N 37°57' E 023°36'0 0.3
2018-Jun-09 13:00N 37°57' E 023°36'0 0.0
2018-Jun-09 12:30N 37°57' E 023°36'0 0.0
2018-Jun-09 12:00N 37°57' E 023°36'0 0.0
2018-Jun-09 11:30N 37°57' E 023°36'1 1.4
2018-Jun-09 11:00N 37°57' E 023°35'2 5.0
2018-Jun-09 10:30N 37°59' E 023°33'2 3.9
2018-Jun-09 10:00N 37°57' E 023°33'0 0.0
2018-Jun-09 09:30N 37°57' E 023°33'0 0.0
2018-Jun-09 09:00N 37°57' E 023°33'0 0.0
2018-Jun-09 08:30N 37°57' E 023°33'0 0.0
2018-Jun-09 08:00N 37°57' E 023°33'0 0.0
2018-Jun-09 07:31N 37°57' E 023°33'0 0.0
2018-Jun-09 07:00N 37°57' E 023°33'0 0.0
2018-Jun-09 06:30N 37°57' E 023°33'0 0.0
2018-Jun-09 06:00N 37°57' E 023°33'0 0.0
2018-Jun-09 05:30N 37°57' E 023°33'2 4.9
2018-Jun-09 05:00N 37°57' E 023°36'2 3.6
2018-Jun-09 04:30N 37°56' E 023°38'0 0.3
2018-Jun-09 04:00N 37°56' E 023°38'2 3.2
2018-Jun-09 03:31N 37°56' E 023°36'1 1.1
2018-Jun-09 03:00N 37°57' E 023°36'2 4.9
2018-Jun-09 02:31N 37°57' E 023°33'0 0.0
2018-Jun-09 02:00N 37°57' E 023°33'0 0.0
2018-Jun-08 12:15N 37°57' E 023°33'1 4.3
2018-Jun-08 12:00N 37°57' E 023°34'1 2.2
2018-Jun-08 11:31N 37°57' E 023°36'1 2.6
2018-Jun-08 11:00N 37°56' E 023°35'1 2.9
2018-Jun-08 10:30N 37°57' E 023°35'2 3.1
2018-Jun-08 10:00N 37°57' E 023°33'0 0.0
2018-Jun-08 09:30N 37°57' E 023°33'0 0.0
2018-Jun-08 09:00N 37°57' E 023°33'0 0.0
2018-Jun-08 08:30N 37°57' E 023°33'0 0.0
2018-Jun-08 08:00N 37°57' E 023°33'0 0.0
2018-Jun-08 07:30N 37°57' E 023°33'0 0.0
2018-Jun-08 07:00N 37°57' E 023°33'0 0.0
2018-Jun-08 06:30N 37°57' E 023°33'0 0.0
2018-Jun-08 06:00N 37°57' E 023°33'0 0.0
2018-Jun-08 05:30N 37°57' E 023°33'0 0.0
2018-Jun-08 05:00N 37°57' E 023°33'0 0.0
2018-Jun-08 04:30N 37°57' E 023°33'0 0.0
2018-Jun-08 04:00N 37°57' E 023°33'  
Track history (hours):
 
Tides and Currents Weather Stations Pressure Air Temp Water Temp Dewpoint Dewpoint Depression Visibility Wind Speed Wind Dir Waves Ship Positions

Christos Xli

Last reported at 2018-Jun-17 20:28 UTC. Time now 2018-Jun-17 22:18 UTC.
Position N 37°57' E 023°33'.

Length 34 m; draft 5.2 m.

Type: Tug. MMSI: 241567000.

Date/timePositionNaut miles runAvg speedWind from/ knotsBaromVisibWave heightAir tempDewpointWater temp
2018-Jun-17 20:28N 37°57' E 023°33'0 0.0
2018-Jun-17 20:00N 37°57' E 023°33'0 0.0
2018-Jun-17 19:30N 37°57' E 023°33'0 0.0
2018-Jun-17 19:00N 37°57' E 023°33'0 0.0
2018-Jun-17 18:30N 37°57' E 023°33'0 0.0
2018-Jun-17 18:00N 37°57' E 023°33'0 0.0
2018-Jun-17 17:30N 37°57' E 023°33'0 0.0
2018-Jun-17 17:00N 37°57' E 023°33'0 0.0
2018-Jun-17 16:30N 37°57' E 023°33'0 0.0
2018-Jun-17 16:00N 37°57' E 023°33'0 0.0
2018-Jun-17 15:30N 37°57' E 023°33'0 0.0
2018-Jun-17 15:00N 37°57' E 023°33'0 0.0
2018-Jun-17 14:30N 37°57' E 023°33'0 0.0
2018-Jun-17 14:00N 37°57' E 023°33'0 0.0
2018-Jun-17 13:30N 37°57' E 023°33'0 0.0
2018-Jun-17 13:00N 37°57' E 023°33'0 0.5
2018-Jun-17 12:30N 37°57' E 023°33'1 2.5
2018-Jun-17 12:00N 37°57' E 023°35'0 0.9
2018-Jun-17 11:30N 37°57' E 023°35'2 3.4
2018-Jun-17 11:00N 37°57' E 023°33'0 0.0
2018-Jun-17 10:30N 37°57' E 023°33'0 0.0
2018-Jun-17 10:00N 37°57' E 023°33'0 0.0
2018-Jun-17 09:30N 37°57' E 023°33'0 0.0
2018-Jun-17 09:00N 37°57' E 023°33'0 0.0
2018-Jun-17 08:30N 37°57' E 023°33'0 0.0
2018-Jun-17 08:00N 37°57' E 023°33'0 0.0
2018-Jun-17 07:30N 37°57' E 023°33'0 0.0
2018-Jun-17 07:00N 37°57' E 023°33'0 0.0
2018-Jun-17 06:30N 37°57' E 023°33'0 0.0
2018-Jun-17 06:00N 37°57' E 023°33'0 0.0
2018-Jun-17 05:30N 37°57' E 023°33'0 0.0
2018-Jun-17 05:00N 37°57' E 023°33'0 0.0
2018-Jun-17 04:30N 37°57' E 023°33'0 0.0
2018-Jun-17 04:00N 37°57' E 023°33'0 0.0
2018-Jun-17 03:30N 37°57' E 023°33'0 0.0
2018-Jun-17 03:00N 37°57' E 023°33'0 0.0
2018-Jun-17 02:30N 37°57' E 023°33'0 0.0
2018-Jun-17 02:00N 37°57' E 023°33'0 0.0
2018-Jun-17 01:30N 37°57' E 023°33'0 0.0
2018-Jun-17 01:00N 37°57' E 023°33'0 0.0
2018-Jun-17 00:30N 37°57' E 023°33'0 0.0
2018-Jun-17 00:00N 37°57' E 023°33'0 0.0
2018-Jun-16 23:30N 37°57' E 023°33'1 2.7
2018-Jun-16 23:00N 37°57' E 023°35'0 0.6
2018-Jun-16 22:30N 37°57' E 023°35'0 0.0
2018-Jun-16 22:00N 37°57' E 023°35'0 0.4
2018-Jun-16 21:30N 37°57' E 023°35'1 1.6
2018-Jun-16 21:00N 37°56' E 023°35'1 1.8
2018-Jun-16 20:30N 37°57' E 023°35'1 2.3
2018-Jun-16 20:00N 37°56' E 023°35'1 1.9
2018-Jun-16 19:30N 37°57' E 023°35'2 3.5
2018-Jun-16 19:00N 37°57' E 023°33'0 0.0
2018-Jun-16 18:30N 37°57' E 023°33'0 0.0
2018-Jun-16 18:00N 37°57' E 023°33'0 0.0
2018-Jun-16 17:30N 37°57' E 023°33'0 0.0
2018-Jun-16 17:00N 37°57' E 023°33'0 0.0
2018-Jun-16 16:30N 37°57' E 023°33'0 0.0
2018-Jun-16 16:00N 37°57' E 023°33'0 0.0
2018-Jun-16 15:30N 37°57' E 023°33'0 0.0
2018-Jun-16 15:00N 37°57' E 023°33'0 0.0
2018-Jun-16 14:30N 37°57' E 023°33'0 0.0
2018-Jun-16 14:00N 37°57' E 023°33'0 0.0
2018-Jun-16 13:30N 37°57' E 023°33'0 0.0
2018-Jun-16 13:00N 37°57' E 023°33'0 0.0
2018-Jun-16 12:30N 37°57' E 023°33'0 0.0
2018-Jun-16 12:00N 37°57' E 023°33'3 6.2
2018-Jun-16 11:30N 38°00' E 023°33'2 3.9
2018-Jun-16 11:00N 38°01' E 023°36'1 1.4
2018-Jun-16 10:30N 38°01' E 023°35'1 2.4
2018-Jun-16 10:00N 38°00' E 023°33'0 0.5
2018-Jun-16 09:30N 38°00' E 023°33'3 5.9
2018-Jun-16 09:00N 37°57' E 023°35'0 0.0
2018-Jun-16 08:30N 37°57' E 023°35'0 0.0
2018-Jun-16 08:00N 37°57' E 023°35'0 0.0
2018-Jun-16 07:30N 37°57' E 023°35'0 0.0
2018-Jun-16 07:00N 37°57' E 023°35'0 0.1
2018-Jun-16 06:30N 37°57' E 023°35'0 0.0
2018-Jun-16 06:00N 37°57' E 023°35'0 0.0
2018-Jun-16 05:30N 37°57' E 023°35'0 0.0
2018-Jun-16 05:00N 37°57' E 023°35'0 0.0
2018-Jun-16 04:30N 37°57' E 023°35'0 0.0
2018-Jun-16 04:00N 37°57' E 023°35'0 0.0
2018-Jun-16 03:30N 37°57' E 023°35'0 0.0
2018-Jun-16 03:00N 37°57' E 023°35'0 0.0
2018-Jun-16 02:30N 37°57' E 023°35'0 0.0
2018-Jun-16 02:00N 37°57' E 023°35'0 0.0
2018-Jun-16 01:30N 37°57' E 023°35'0 0.0
2018-Jun-16 01:00N 37°57' E 023°35'0 0.0
2018-Jun-16 00:30N 37°57' E 023°35'0 0.0
2018-Jun-15 23:59N 37°57' E 023°35'0 0.0
2018-Jun-15 23:31N 37°57' E 023°35'1 1.5
2018-Jun-15 23:01N 37°57' E 023°36'0 0.2
2018-Jun-15 22:30N 37°57' E 023°36'0 0.0
2018-Jun-15 22:00N 37°57' E 023°36'0 0.2
2018-Jun-15 21:30N 37°57' E 023°36'1 1.6
2018-Jun-15 21:01N 37°56' E 023°36'1 1.4
2018-Jun-15 20:30N 37°57' E 023°36'0 0.4
2018-Jun-15 20:00N 37°57' E 023°36'1 2.0
2018-Jun-15 19:30N 37°57' E 023°35'0 0.2
2018-Jun-15 19:00N 37°57' E 023°35'2 3.4
2018-Jun-15 18:30N 37°58' E 023°33'2 3.4
2018-Jun-15 18:00N 37°57' E 023°35'0 0.0
2018-Jun-15 17:30N 37°57' E 023°35'0 0.0
2018-Jun-15 17:00N 37°57' E 023°35'0 0.0
2018-Jun-15 16:30N 37°57' E 023°35'0 0.0
2018-Jun-15 16:00N 37°57' E 023°35'1 2.6
2018-Jun-15 15:30N 37°57' E 023°33'0 0.0
2018-Jun-15 15:00N 37°57' E 023°33'1 2.9
2018-Jun-15 14:30N 37°57' E 023°35'0 0.5
2018-Jun-15 14:00N 37°57' E 023°35'1 2.3
2018-Jun-15 13:30N 37°57' E 023°34'4 7.2
2018-Jun-15 13:00N 38°01' E 023°34'1 2.7
2018-Jun-15 12:30N 38°02' E 023°36'0 0.8
2018-Jun-15 12:00N 38°02' E 023°35'0 0.3
2018-Jun-15 11:30N 38°02' E 023°35'0 0.5
2018-Jun-15 11:00N 38°02' E 023°35'0 0.2
2018-Jun-15 10:30N 38°02' E 023°35'0 0.9
2018-Jun-15 10:00N 38°01' E 023°35'0 0.3
2018-Jun-15 09:30N 38°02' E 023°35'0 0.3
2018-Jun-15 09:00N 38°02' E 023°35'1 2.7
2018-Jun-15 08:30N 38°01' E 023°34'0 0.6
2018-Jun-15 08:00N 38°01' E 023°34'0 0.4
2018-Jun-15 07:30N 38°01' E 023°34'0 0.4
2018-Jun-15 07:00N 38°01' E 023°34'4 7.2
2018-Jun-15 06:30N 37°57' E 023°33'0 0.7
2018-Jun-15 06:00N 37°57' E 023°33'0 0.0
2018-Jun-15 05:30N 37°57' E 023°33'0 0.0
2018-Jun-15 05:00N 37°57' E 023°33'0 0.0
2018-Jun-15 04:30N 37°57' E 023°33'2 3.2
2018-Jun-15 04:00N 37°57' E 023°35'0 0.2
2018-Jun-15 03:30N 37°57' E 023°35'2 3.0
2018-Jun-15 03:00N 37°57' E 023°33'0 0.0
2018-Jun-14 11:28N 37°57' E 023°33'0 0.5
2018-Jun-14 11:00N 37°57' E 023°33'0 0.0
2018-Jun-14 10:30N 37°57' E 023°33'0 0.0
2018-Jun-14 10:00N 37°57' E 023°33'0 0.0
2018-Jun-14 09:31N 37°57' E 023°33'0 0.0
2018-Jun-14 09:00N 37°57' E 023°33'0 0.0
2018-Jun-14 08:30N 37°57' E 023°33'0 0.0
2018-Jun-14 08:00N 37°57' E 023°33'0 0.0
2018-Jun-14 07:30N 37°57' E 023°33'0 0.0
2018-Jun-14 07:00N 37°57' E 023°33'1 1.3
2018-Jun-14 06:26N 37°58' E 023°34'2 3.4
2018-Jun-14 05:59N 37°57' E 023°36'0 0.4
2018-Jun-14 05:30N 37°57' E 023°36'1 1.9
2018-Jun-14 05:00N 37°56' E 023°36'1 2.2
2018-Jun-14 04:31N 37°57' E 023°35'2 3.4
2018-Jun-14 04:00N 37°57' E 023°33'0 0.0
2018-Jun-14 03:30N 37°57' E 023°33'0 0.0
2018-Jun-14 03:00N 37°57' E 023°33'0 0.0
2018-Jun-14 02:30N 37°57' E 023°33'0 0.0
2018-Jun-14 02:00N 37°57' E 023°33'0 0.0
2018-Jun-14 01:30N 37°57' E 023°33'0 0.0
2018-Jun-13 11:52N 37°57' E 023°33'0 0.0
2018-Jun-13 11:30N 37°57' E 023°33'0 0.0
2018-Jun-13 11:00N 37°57' E 023°33'0 0.0
2018-Jun-13 10:30N 37°57' E 023°33'0 0.0
2018-Jun-13 10:00N 37°57' E 023°33'0 0.0
2018-Jun-13 09:30N 37°57' E 023°33'0 0.0
2018-Jun-13 09:00N 37°57' E 023°33'0 0.0
2018-Jun-13 08:31N 37°57' E 023°33'0 0.0
2018-Jun-13 08:00N 37°57' E 023°33'0 0.0
2018-Jun-13 07:30N 37°57' E 023°33'0 0.0
2018-Jun-13 07:00N 37°57' E 023°33'0 0.0
2018-Jun-13 06:31N 37°57' E 023°33'0 0.0
2018-Jun-13 06:00N 37°57' E 023°33'0 0.0
2018-Jun-13 05:31N 37°57' E 023°33'0 0.0
2018-Jun-13 05:00N 37°57' E 023°33'0 0.0
2018-Jun-13 04:30N 37°57' E 023°33'0 0.0
2018-Jun-13 04:00N 37°57' E 023°33'0 0.0
2018-Jun-12 05:13N 37°57' E 023°33'0 0.0
2018-Jun-12 05:01N 37°57' E 023°33'0 0.0
2018-Jun-12 04:30N 37°57' E 023°33'0 0.0
2018-Jun-12 04:01N 37°57' E 023°33'0 0.0
2018-Jun-12 03:31N 37°57' E 023°33'0 0.0
2018-Jun-12 03:01N 37°57' E 023°33'0 0.0
2018-Jun-12 02:31N 37°57' E 023°33'0 0.0
2018-Jun-12 02:01N 37°57' E 023°33'0 0.0
2018-Jun-12 01:31N 37°57' E 023°33'0 0.0
2018-Jun-12 01:01N 37°57' E 023°33'0 0.0
2018-Jun-12 00:31N 37°57' E 023°33'0 0.0
2018-Jun-12 00:00N 37°57' E 023°33'0 0.0
2018-Jun-11 23:31N 37°57' E 023°33'0 0.0
2018-Jun-11 23:01N 37°57' E 023°33'0 0.0
2018-Jun-11 22:31N 37°57' E 023°33'0 0.0
2018-Jun-11 22:01N 37°57' E 023°33'0 0.0
2018-Jun-11 21:30N 37°57' E 023°33'1 1.3
2018-Jun-11 21:01N 37°57' E 023°34'2 3.3
2018-Jun-11 20:30N 37°57' E 023°36'0 0.0
2018-Jun-11 20:01N 37°57' E 023°36'1 2.1
2018-Jun-11 19:20N 37°56' E 023°38'1 1.6
2018-Jun-11 19:00N 37°56' E 023°38'1 1.4
2018-Jun-11 18:30N 37°56' E 023°37'3 6.1
2018-Jun-11 18:00N 37°58' E 023°34'0 0.0
2018-Jun-11 17:30N 37°58' E 023°34'0 0.0
2018-Jun-11 17:00N 37°58' E 023°34'0 0.0
2018-Jun-11 16:30N 37°58' E 023°34'0 0.3
2018-Jun-11 16:00N 37°58' E 023°34'1 3.0
2018-Jun-11 15:30N 37°58' E 023°32'0 0.9
2018-Jun-11 15:00N 37°59' E 023°32'2 3.4
2018-Jun-11 14:30N 37°60' E 023°34'0 0.6
2018-Jun-11 14:00N 37°60' E 023°33'1 1.1
2018-Jun-11 13:30N 37°59' E 023°33'3 5.2
2018-Jun-11 13:00N 37°57' E 023°35'0 0.0
2018-Jun-11 12:30N 37°57' E 023°35'0 0.0
2018-Jun-11 12:00N 37°57' E 023°35'0 0.0
2018-Jun-11 11:30N 37°57' E 023°35'2 3.5
2018-Jun-11 11:00N 37°57' E 023°33'0 0.0
2018-Jun-10 12:27N 37°57' E 023°33'2 5.1
2018-Jun-10 12:00N 37°57' E 023°36'0 1.0
2018-Jun-10 11:30N 37°57' E 023°35'0 0.6
2018-Jun-10 11:00N 37°57' E 023°35'0 0.4
2018-Jun-10 10:30N 37°57' E 023°35'2 3.9
2018-Jun-10 10:00N 37°57' E 023°33'0 0.0
2018-Jun-10 09:30N 37°57' E 023°33'0 0.0
2018-Jun-10 09:00N 37°57' E 023°33'0 0.0
2018-Jun-10 08:30N 37°57' E 023°33'0 0.0
2018-Jun-10 08:00N 37°57' E 023°33'0 0.0
2018-Jun-10 07:30N 37°57' E 023°33'0 0.2
2018-Jun-10 07:00N 37°57' E 023°33'3 6.6
2018-Jun-10 06:30N 37°56' E 023°37'0 0.6
2018-Jun-10 06:00N 37°56' E 023°37'0 0.1
2018-Jun-10 05:30N 37°56' E 023°37'0 0.0
2018-Jun-10 05:00N 37°56' E 023°37'3 5.9
2018-Jun-10 04:30N 37°57' E 023°34'1 1.4
2018-Jun-10 04:00N 37°57' E 023°33'0 0.0
2018-Jun-09 16:09N 37°57' E 023°33'1 3.5
2018-Jun-09 16:00N 37°57' E 023°34'2 3.5
2018-Jun-09 15:30N 37°57' E 023°36'0 0.3
2018-Jun-09 14:31N 37°57' E 023°36'0 0.1
2018-Jun-09 14:00N 37°57' E 023°36'0 0.7
2018-Jun-09 13:30N 37°57' E 023°36'0 0.3
2018-Jun-09 13:00N 37°57' E 023°36'0 0.0
2018-Jun-09 12:30N 37°57' E 023°36'0 0.0
2018-Jun-09 12:00N 37°57' E 023°36'0 0.0
2018-Jun-09 11:30N 37°57' E 023°36'1 1.4
2018-Jun-09 11:00N 37°57' E 023°35'2 5.0
2018-Jun-09 10:30N 37°59' E 023°33'2 3.9
2018-Jun-09 10:00N 37°57' E 023°33'0 0.0
2018-Jun-09 09:30N 37°57' E 023°33'0 0.0
2018-Jun-09 09:00N 37°57' E 023°33'0 0.0
2018-Jun-09 08:30N 37°57' E 023°33'0 0.0
2018-Jun-09 08:00N 37°57' E 023°33'0 0.0
2018-Jun-09 07:31N 37°57' E 023°33'0 0.0
2018-Jun-09 07:00N 37°57' E 023°33'0 0.0
2018-Jun-09 06:30N 37°57' E 023°33'0 0.0
2018-Jun-09 06:00N 37°57' E 023°33'0 0.0
2018-Jun-09 05:30N 37°57' E 023°33'2 4.9
2018-Jun-09 05:00N 37°57' E 023°36'2 3.6
2018-Jun-09 04:30N 37°56' E 023°38'0 0.3
2018-Jun-09 04:00N 37°56' E 023°38'2 3.2
2018-Jun-09 03:31N 37°56' E 023°36'1 1.1
2018-Jun-09 03:00N 37°57' E 023°36'2 4.9
2018-Jun-09 02:31N 37°57' E 023°33'0 0.0
2018-Jun-09 02:00N 37°57' E 023°33'0 0.0
2018-Jun-08 12:15N 37°57' E 023°33'1 4.3
2018-Jun-08 12:00N 37°57' E 023°34'1 2.2
2018-Jun-08 11:31N 37°57' E 023°36'1 2.6
2018-Jun-08 11:00N 37°56' E 023°35'1 2.9
2018-Jun-08 10:30N 37°57' E 023°35'2 3.1
2018-Jun-08 10:00N 37°57' E 023°33'0 0.0
2018-Jun-08 09:30N 37°57' E 023°33'0 0.0
2018-Jun-08 09:00N 37°57' E 023°33'0 0.0
2018-Jun-08 08:30N 37°57' E 023°33'0 0.0
2018-Jun-08 08:00N 37°57' E 023°33'0 0.0
2018-Jun-08 07:30N 37°57' E 023°33'0 0.0
2018-Jun-08 07:00N 37°57' E 023°33'0 0.0
2018-Jun-08 06:30N 37°57' E 023°33'0 0.0
2018-Jun-08 06:00N 37°57' E 023°33'0 0.0
2018-Jun-08 05:30N 37°57' E 023°33'0 0.0
2018-Jun-08 05:00N 37°57' E 023°33'0 0.0
2018-Jun-08 04:30N 37°57' E 023°33'0 0.0
2018-Jun-08 04:00N 37°57' E 023°33'  

Dump ship's entire track history